createdAt,value
2023-03-26T00:01:25.540Z,18.68
2023-03-26T00:03:56.777Z,18.67
2023-03-26T00:06:24.599Z,18.67
2023-03-26T00:08:51.765Z,18.67
2023-03-26T00:11:20.010Z,18.66
2023-03-26T00:13:46.826Z,18.67
2023-03-26T00:16:14.928Z,18.67
2023-03-26T00:18:41.718Z,18.68
2023-03-26T00:21:09.853Z,18.66
2023-03-26T00:23:37.825Z,18.68
2023-03-26T00:26:04.390Z,18.67
2023-03-26T00:28:30.132Z,18.67
2023-03-26T00:31:00.705Z,18.66
2023-03-26T00:33:27.039Z,18.66
2023-03-26T00:35:54.515Z,18.67
2023-03-26T00:38:21.748Z,18.65
2023-03-26T00:40:50.172Z,18.66
2023-03-26T00:43:19.389Z,18.66
2023-03-26T00:45:47.277Z,18.65
2023-03-26T00:48:13.795Z,18.66
2023-03-26T00:50:40.672Z,18.66
2023-03-26T00:53:08.010Z,18.66
2023-03-26T00:55:34.586Z,18.66
2023-03-26T00:58:00.647Z,18.66
2023-03-26T01:00:34.001Z,18.66
2023-03-26T01:03:01.812Z,18.66
2023-03-26T01:05:42.249Z,18.66
2023-03-26T01:08:29.921Z,18.66
2023-03-26T01:11:06.363Z,18.66
2023-03-26T01:13:36.129Z,18.66
2023-03-26T01:16:03.530Z,18.65
2023-03-26T01:18:33.377Z,18.65
2023-03-26T01:21:04.441Z,18.65
2023-03-26T01:23:39.143Z,18.66
2023-03-26T01:26:12.694Z,18.65
2023-03-26T01:28:40.582Z,18.65
2023-03-26T01:31:14.038Z,18.65
2023-03-26T01:33:46.634Z,18.66
2023-03-26T01:36:32.416Z,18.64
2023-03-26T01:39:08.837Z,18.64
2023-03-26T01:41:45.020Z,18.65
2023-03-26T01:47:00.182Z,18.64
2023-03-26T01:49:28.091Z,18.65
2023-03-26T01:51:55.253Z,18.65
2023-03-26T01:54:24.175Z,18.64
2023-03-26T01:57:14.094Z,18.64
2023-03-26T02:00:11.311Z,18.64
2023-03-26T02:02:54.793Z,18.64
2023-03-26T02:05:25.844Z,18.64
2023-03-26T02:08:11.150Z,18.64
2023-03-26T02:10:40.797Z,18.64
2023-03-26T02:13:06.580Z,18.64
2023-03-26T02:15:32.588Z,18.63
2023-03-26T02:17:58.913Z,18.64
2023-03-26T02:20:29.116Z,18.63
2023-03-26T02:22:56.391Z,18.64
2023-03-26T02:25:22.335Z,18.64
2023-03-26T02:27:49.807Z,18.64
2023-03-26T02:30:18.306Z,18.63
2023-03-26T02:32:43.976Z,18.64
2023-03-26T02:35:11.181Z,18.63
2023-03-26T02:37:37.462Z,18.63
2023-03-26T02:40:05.536Z,18.62
2023-03-26T02:42:31.180Z,18.63
2023-03-26T02:44:56.826Z,18.63
2023-03-26T02:47:22.488Z,18.64
2023-03-26T02:49:48.206Z,18.64
2023-03-26T02:52:16.302Z,18.63
2023-03-26T02:54:41.977Z,18.64
2023-03-26T02:57:07.684Z,18.63
2023-03-26T02:59:33.378Z,18.64
2023-03-26T03:01:59.062Z,18.63
2023-03-26T03:04:24.757Z,18.63
2023-03-26T03:06:56.772Z,18.63
2023-03-26T03:09:24.154Z,18.62
2023-03-26T03:11:49.914Z,18.63
2023-03-26T03:14:15.573Z,18.62
2023-03-26T03:16:41.340Z,18.63
2023-03-26T03:19:07.073Z,18.63
2023-03-26T03:21:32.733Z,18.63
2023-03-26T03:23:59.978Z,18.64
2023-03-26T03:26:28.794Z,18.64
2023-03-26T03:28:55.687Z,18.63
2023-03-26T03:31:21.836Z,18.62
2023-03-26T03:33:47.532Z,18.62
2023-03-26T03:36:20.100Z,18.62
2023-03-26T03:38:48.281Z,18.61
2023-03-26T03:41:13.986Z,18.62
2023-03-26T03:43:40.355Z,18.62
2023-03-26T03:46:06.046Z,18.62
2023-03-26T03:48:32.419Z,18.62
2023-03-26T03:50:58.090Z,18.62
2023-03-26T03:53:25.364Z,18.62
2023-03-26T03:55:53.778Z,18.62
2023-03-26T03:58:22.371Z,18.62
2023-03-26T04:00:49.508Z,18.62
2023-03-26T04:03:15.899Z,18.62
2023-03-26T04:05:42.929Z,18.62
2023-03-26T04:08:08.780Z,18.62
2023-03-26T04:10:34.431Z,18.62
2023-03-26T04:13:00.163Z,18.62
2023-03-26T04:15:25.844Z,18.62
2023-03-26T04:17:51.513Z,18.62
2023-03-26T04:20:18.541Z,18.61
2023-03-26T04:22:44.712Z,18.62
2023-03-26T04:25:11.308Z,18.62
2023-03-26T04:27:37.479Z,18.61
2023-03-26T04:30:05.780Z,18.61
2023-03-26T04:32:34.918Z,18.61
2023-03-26T04:35:03.135Z,18.61
2023-03-26T04:37:33.670Z,18.62
2023-03-26T04:40:05.616Z,18.61
2023-03-26T04:42:32.508Z,18.62
2023-03-26T04:44:58.913Z,18.60
2023-03-26T04:47:24.699Z,18.61
2023-03-26T04:49:50.606Z,18.61
2023-03-26T04:52:16.250Z,18.61
2023-03-26T04:54:43.644Z,18.62
2023-03-26T04:57:18.904Z,18.61
2023-03-26T04:59:44.557Z,18.60
2023-03-26T05:02:10.878Z,18.60
2023-03-26T05:04:39.542Z,18.60
2023-03-26T05:07:06.542Z,18.61
2023-03-26T05:09:32.185Z,18.60
2023-03-26T05:11:57.843Z,18.61
2023-03-26T05:14:23.846Z,18.61
2023-03-26T05:16:52.575Z,18.61
2023-03-26T05:19:18.337Z,18.61
2023-03-26T05:21:44.004Z,18.60
2023-03-26T05:24:09.804Z,18.60
2023-03-26T05:26:36.062Z,18.61
2023-03-26T05:29:02.245Z,18.61
2023-03-26T05:31:29.998Z,18.60
2023-03-26T05:33:56.856Z,18.60
2023-03-26T05:36:23.244Z,18.60
2023-03-26T05:38:49.128Z,18.60
2023-03-26T05:41:15.906Z,18.60
2023-03-26T05:43:43.028Z,18.60
2023-03-26T05:46:09.019Z,18.61
2023-03-26T05:48:34.734Z,18.60
2023-03-26T05:51:00.744Z,18.60
2023-03-26T05:53:26.818Z,18.60
2023-03-26T05:55:56.917Z,18.60
2023-03-26T05:58:24.944Z,18.59
2023-03-26T06:01:15.689Z,18.60
2023-03-26T06:03:43.609Z,18.60
2023-03-26T06:06:15.320Z,18.60
2023-03-26T06:08:42.966Z,18.61
2023-03-26T06:11:11.740Z,18.59
2023-03-26T06:13:38.114Z,18.59
2023-03-26T06:16:04.594Z,18.60
2023-03-26T06:18:30.622Z,18.60
2023-03-26T06:20:56.677Z,18.59
2023-03-26T06:23:22.591Z,18.59
2023-03-26T06:25:48.726Z,18.59
2023-03-26T06:28:15.018Z,18.60
2023-03-26T06:30:40.866Z,18.60
2023-03-26T06:33:06.954Z,18.59
2023-03-26T06:35:32.635Z,18.60
2023-03-26T06:37:58.808Z,18.59
2023-03-26T06:40:25.184Z,18.59
2023-03-26T06:43:09.022Z,18.60
2023-03-26T06:45:36.817Z,18.60
2023-03-26T06:48:02.665Z,18.59
2023-03-26T06:50:28.386Z,18.58
2023-03-26T06:52:54.565Z,18.58
2023-03-26T06:55:20.468Z,18.58
2023-03-26T06:57:48.588Z,18.58
2023-03-26T07:00:14.646Z,18.58
2023-03-26T07:02:40.308Z,18.56
2023-03-26T07:05:06.230Z,18.58
2023-03-26T07:07:31.894Z,18.58
2023-03-26T07:09:57.534Z,18.58
2023-03-26T07:12:24.922Z,18.58
2023-03-26T07:14:50.613Z,18.58
2023-03-26T07:17:16.348Z,18.57
2023-03-26T07:19:42.028Z,18.56
2023-03-26T07:22:14.926Z,18.57
2023-03-26T07:24:40.949Z,18.56
2023-03-26T07:27:46.419Z,18.58
2023-03-26T07:30:26.305Z,18.56
2023-03-26T07:32:59.728Z,18.57
2023-03-26T07:35:30.036Z,18.56
2023-03-26T07:38:26.261Z,18.57
2023-03-26T07:41:15.199Z,18.56
2023-03-26T07:44:21.153Z,18.56
2023-03-26T07:46:47.310Z,18.56
2023-03-26T07:49:13.171Z,18.56
2023-03-26T07:51:39.375Z,18.56
2023-03-26T07:54:05.867Z,18.56
2023-03-26T07:56:55.863Z,18.57
2023-03-26T08:02:41.574Z,18.55
2023-03-26T08:05:19.036Z,18.56
2023-03-26T08:08:08.197Z,18.55
2023-03-26T08:10:43.274Z,18.55
2023-03-26T08:13:36.703Z,18.56
2023-03-26T08:16:08.128Z,18.55
2023-03-26T08:18:55.884Z,18.56
2023-03-26T08:21:33.984Z,18.55
2023-03-26T08:24:21.956Z,18.54
2023-03-26T08:26:56.606Z,18.55
2023-03-26T08:30:02.075Z,18.55
2023-03-26T08:32:28.200Z,18.55
2023-03-26T08:34:53.938Z,18.55
2023-03-26T08:37:19.733Z,18.54
2023-03-26T08:39:45.425Z,18.54
2023-03-26T08:48:20.458Z,18.54
2023-03-26T08:51:26.704Z,18.54
2023-03-26T08:54:15.948Z,18.54
2023-03-26T08:57:06.662Z,18.55
2023-03-26T09:02:33.408Z,18.54
2023-03-26T09:05:19.900Z,18.53
2023-03-26T09:08:01.587Z,18.53
2023-03-26T09:11:07.035Z,18.54
2023-03-26T09:13:43.756Z,18.53
2023-03-26T09:16:41.791Z,18.53
2023-03-26T09:19:27.309Z,18.53
2023-03-26T09:22:24.574Z,18.53
2023-03-26T09:25:07.687Z,18.53
2023-03-26T09:27:49.415Z,18.52
2023-03-26T09:30:47.803Z,18.53
2023-03-26T09:33:55.167Z,18.54
2023-03-26T09:36:31.409Z,18.53
2023-03-26T09:39:23.018Z,18.53
2023-03-26T09:42:04.121Z,18.53
2023-03-26T09:44:52.591Z,18.52
2023-03-26T09:47:34.075Z,18.53
2023-03-26T09:50:29.064Z,18.52
2023-03-26T09:53:12.620Z,18.53
2023-03-26T09:55:47.802Z,18.53
2023-03-26T09:58:42.277Z,18.52
2023-03-26T10:04:26.601Z,18.52
2023-03-26T10:07:03.047Z,18.51
2023-03-26T10:09:43.927Z,18.52
2023-03-26T10:12:32.063Z,18.52
2023-03-26T10:15:25.170Z,18.52
2023-03-26T10:18:05.208Z,18.52
2023-03-26T10:21:16.118Z,18.52
2023-03-26T10:24:06.237Z,18.52
2023-03-26T10:27:08.556Z,18.51
2023-03-26T10:30:03.579Z,18.51
2023-03-26T10:32:43.365Z,18.50
2023-03-26T10:35:20.497Z,18.51
2023-03-26T10:38:17.136Z,18.51
2023-03-26T10:41:04.227Z,18.51
2023-03-26T10:44:09.966Z,18.51
2023-03-26T10:46:46.602Z,18.50
2023-03-26T10:49:39.698Z,18.51
2023-03-26T10:52:09.092Z,18.50
2023-03-26T10:54:55.396Z,18.50
2023-03-26T10:57:35.544Z,18.51
2023-03-26T11:00:13.559Z,18.50
2023-03-26T11:02:46.196Z,18.50
2023-03-26T11:05:25.622Z,18.50
2023-03-26T11:07:58.453Z,18.51
2023-03-26T11:10:41.970Z,18.50
2023-03-26T11:16:11.093Z,18.50
2023-03-26T11:18:58.676Z,18.51
2023-03-26T11:21:33.725Z,18.50
2023-03-26T11:24:28.152Z,18.50
2023-03-26T11:26:58.269Z,18.50
2023-03-26T11:29:55.871Z,18.50
2023-03-26T11:32:26.699Z,18.50
2023-03-26T11:35:41.097Z,18.50
2023-03-26T11:38:32.684Z,18.50
2023-03-26T11:40:59.755Z,18.49
2023-03-26T11:43:31.001Z,18.48
2023-03-26T11:45:56.859Z,18.49
2023-03-26T11:48:27.042Z,18.50
2023-03-26T11:50:57.869Z,18.49
2023-03-26T11:53:28.332Z,18.50
2023-03-26T11:56:01.564Z,18.49
2023-03-26T11:58:34.503Z,18.49
2023-03-26T12:01:04.355Z,18.49
2023-03-26T12:03:31.053Z,18.48
2023-03-26T12:05:58.974Z,18.49
2023-03-26T12:08:33.496Z,18.49
2023-03-26T12:11:03.147Z,18.49
2023-03-26T12:13:52.615Z,18.48
2023-03-26T12:16:19.947Z,18.49
2023-03-26T12:18:58.625Z,18.50
2023-03-26T12:21:24.297Z,18.49
2023-03-26T12:24:03.852Z,18.49
2023-03-26T12:26:34.776Z,18.49
2023-03-26T12:29:06.543Z,18.48
2023-03-26T12:31:41.592Z,18.49
2023-03-26T12:34:15.431Z,18.48
2023-03-26T12:36:48.566Z,18.48
2023-03-26T12:40:06.516Z,18.48
2023-03-26T12:44:47.005Z,18.48
2023-03-26T12:45:14.859Z,18.49
2023-03-26T12:48:01.473Z,18.49
2023-03-26T12:50:34.427Z,18.47
2023-03-26T12:56:35.371Z,18.48
2023-03-26T12:59:18.579Z,18.47
2023-03-26T13:02:17.099Z,18.47
2023-03-26T13:05:05.045Z,18.47
2023-03-26T13:08:12.083Z,18.48
2023-03-26T13:10:48.762Z,18.47
2023-03-26T13:13:43.375Z,18.48
2023-03-26T13:16:32.448Z,18.47
2023-03-26T13:19:06.309Z,18.47
2023-03-26T13:21:56.302Z,18.47
2023-03-26T13:25:03.275Z,18.48
2023-03-26T13:27:55.032Z,18.47
2023-03-26T13:30:30.602Z,18.47
2023-03-26T13:33:36.183Z,18.47
2023-03-26T13:36:22.511Z,18.47
2023-03-26T13:39:29.572Z,18.48
2023-03-26T13:42:06.653Z,18.46
2023-03-26T13:45:04.343Z,18.47
2023-03-26T13:47:34.842Z,18.46
2023-03-26T13:50:09.089Z,18.47
2023-03-26T13:52:44.023Z,18.47
2023-03-26T13:57:58.009Z,18.46
2023-03-26T14:00:28.359Z,18.47
2023-03-26T14:02:59.964Z,18.47
2023-03-26T14:05:30.640Z,18.47
2023-03-26T14:08:03.386Z,18.47
2023-03-26T14:10:34.525Z,18.46
2023-03-26T14:13:13.016Z,18.47
2023-03-26T14:15:42.194Z,18.47
2023-03-26T14:21:08.235Z,18.47
2023-03-26T14:23:47.983Z,18.46
2023-03-26T14:26:24.263Z,18.46
2023-03-26T14:29:25.348Z,18.47
2023-03-26T14:32:02.875Z,18.47
2023-03-26T14:34:55.249Z,18.46
2023-03-26T14:37:32.176Z,18.47
2023-03-26T14:40:25.855Z,18.45
2023-03-26T14:43:16.107Z,18.45
2023-03-26T14:46:21.636Z,18.46
2023-03-26T14:49:04.963Z,18.45
2023-03-26T14:52:09.431Z,18.46
2023-03-26T14:54:40.980Z,18.45
2023-03-26T14:57:46.594Z,18.46
2023-03-26T15:00:30.095Z,18.45
2023-03-26T15:03:37.864Z,18.46
2023-03-26T15:06:25.943Z,18.45
2023-03-26T15:09:17.918Z,18.46
2023-03-26T15:12:12.643Z,18.46
2023-03-26T15:15:01.188Z,18.46
2023-03-26T15:17:55.488Z,18.46
2023-03-26T15:20:47.163Z,18.44
2023-03-26T15:23:52.610Z,18.44
2023-03-26T15:29:53.017Z,18.45
2023-03-26T15:32:58.500Z,18.45
2023-03-26T15:35:50.597Z,18.45
2023-03-26T15:38:56.072Z,18.44
2023-03-26T15:41:30.774Z,18.45
2023-03-26T15:49:24.095Z,18.45
2023-03-26T15:52:23.953Z,18.45
2023-03-26T15:54:56.628Z,18.45
2023-03-26T15:57:31.764Z,18.45
2023-03-26T16:03:14.812Z,18.45
2023-03-26T16:08:39.043Z,18.45
2023-03-26T16:11:08.480Z,18.45
2023-03-26T16:13:56.304Z,18.44
2023-03-26T16:16:23.935Z,18.44
2023-03-26T16:19:17.654Z,18.45
2023-03-26T16:22:05.040Z,18.45
2023-03-26T16:24:42.982Z,18.45
2023-03-26T16:27:27.515Z,18.45
2023-03-26T16:30:08.679Z,18.44
2023-03-26T16:32:36.072Z,18.45
2023-03-26T16:35:04.336Z,18.46
2023-03-26T16:40:26.341Z,18.49
2023-03-26T16:43:17.749Z,18.49
2023-03-26T16:46:22.277Z,18.47
2023-03-26T16:48:55.814Z,18.46
2023-03-26T16:51:31.927Z,18.44
2023-03-26T16:54:35.282Z,18.45
2023-03-26T16:57:24.448Z,18.44
2023-03-26T17:00:15.636Z,18.44
2023-03-26T17:03:03.568Z,18.44
2023-03-26T17:05:37.086Z,18.44
2023-03-26T17:08:42.565Z,18.45
2023-03-26T17:11:35.370Z,18.44
2023-03-26T17:14:16.517Z,18.44
2023-03-26T17:16:48.635Z,18.45
2023-03-26T17:19:54.466Z,18.45
2023-03-26T17:22:49.856Z,18.44
2023-03-26T17:28:42.459Z,18.44
2023-03-26T17:31:25.524Z,18.45
2023-03-26T17:33:51.434Z,18.44
2023-03-26T17:36:40.944Z,18.44
2023-03-26T17:39:46.093Z,18.43
2023-03-26T17:44:51.048Z,18.47
2023-03-26T17:47:24.078Z,18.48
2023-03-26T17:49:54.610Z,18.46
2023-03-26T17:52:24.900Z,18.46
2023-03-26T17:54:51.712Z,18.45
2023-03-26T17:57:22.096Z,18.45
2023-03-26T17:59:49.727Z,18.44
2023-03-26T18:02:20.326Z,18.44
2023-03-26T18:04:49.478Z,18.44
2023-03-26T18:07:56.058Z,18.44
2023-03-26T18:10:32.997Z,18.44
2023-03-26T18:13:25.958Z,18.44
2023-03-26T18:16:14.332Z,18.44
2023-03-26T18:19:00.158Z,18.44
2023-03-26T18:21:42.046Z,18.43
2023-03-26T18:24:13.698Z,18.42
2023-03-26T18:26:44.111Z,18.43
2023-03-26T18:29:19.214Z,18.44
2023-03-26T18:31:45.689Z,18.42
2023-03-26T18:34:17.647Z,18.43
2023-03-26T18:36:44.978Z,18.44
2023-03-26T18:39:12.549Z,18.42
2023-03-26T18:41:41.064Z,18.44
2023-03-26T18:44:12.910Z,18.43
2023-03-26T18:46:38.602Z,18.44
2023-03-26T18:49:05.610Z,18.44
2023-03-26T18:51:31.881Z,18.43
2023-03-26T18:53:59.943Z,18.44
2023-03-26T18:56:30.154Z,18.42
2023-03-26T18:58:57.981Z,18.43
2023-03-26T19:01:29.747Z,18.43
2023-03-26T19:03:57.730Z,18.42
2023-03-26T19:06:23.848Z,18.42
2023-03-26T19:08:49.935Z,18.43
2023-03-26T19:11:16.553Z,18.42
2023-03-26T19:13:42.240Z,18.42
2023-03-26T19:16:25.716Z,18.42
2023-03-26T19:18:51.630Z,18.42
2023-03-26T19:21:19.031Z,18.42
2023-03-26T19:23:45.922Z,18.42
2023-03-26T19:26:12.413Z,18.42
2023-03-26T19:28:40.054Z,18.41
2023-03-26T19:31:11.535Z,18.42
2023-03-26T19:33:40.303Z,18.42
2023-03-26T19:38:51.330Z,18.43
2023-03-26T19:41:38.829Z,18.42
2023-03-26T19:44:16.286Z,18.42
2023-03-26T19:46:53.247Z,18.41
2023-03-26T19:49:31.346Z,18.41
2023-03-26T19:52:14.023Z,18.41
2023-03-26T19:55:00.563Z,18.42
2023-03-26T19:57:28.283Z,18.41
2023-03-26T19:59:54.672Z,18.41
2023-03-26T20:02:20.484Z,18.42
2023-03-26T20:04:46.152Z,18.42
2023-03-26T20:07:15.218Z,18.42
2023-03-26T20:09:41.952Z,18.42
2023-03-26T20:12:07.705Z,18.41
2023-03-26T20:14:33.360Z,18.42
2023-03-26T20:16:59.037Z,18.42
2023-03-26T20:19:25.546Z,18.41
2023-03-26T20:21:51.949Z,18.41
2023-03-26T20:24:18.006Z,18.41
2023-03-26T20:26:44.778Z,18.41
2023-03-26T20:29:10.823Z,18.41
2023-03-26T20:31:37.408Z,18.42
2023-03-26T20:34:03.099Z,18.41
2023-03-26T20:36:33.384Z,18.42
2023-03-26T20:39:00.137Z,18.41
2023-03-26T20:41:26.311Z,18.42
2023-03-26T20:43:52.259Z,18.41
2023-03-26T20:46:20.821Z,18.41
2023-03-26T20:48:46.707Z,18.42
2023-03-26T20:51:14.186Z,18.41
2023-03-26T20:53:41.043Z,18.41
2023-03-26T20:56:17.007Z,18.42
2023-03-26T20:58:43.825Z,18.42
2023-03-26T21:01:10.491Z,18.41
2023-03-26T21:03:37.108Z,18.40
2023-03-26T21:06:04.848Z,18.42
2023-03-26T21:08:33.977Z,18.42
2023-03-26T21:11:03.219Z,18.42
2023-03-26T21:13:37.492Z,18.41
2023-03-26T21:16:03.861Z,18.41
2023-03-26T21:18:29.883Z,18.41
2023-03-26T21:21:17.883Z,18.41
2023-03-26T21:23:55.840Z,18.41
2023-03-26T21:26:29.453Z,18.41
2023-03-26T21:28:55.323Z,18.41
2023-03-26T21:31:23.296Z,18.41
2023-03-26T21:33:49.732Z,18.40
2023-03-26T21:36:17.325Z,18.41
2023-03-26T21:38:43.768Z,18.39
2023-03-26T21:41:24.415Z,18.41
2023-03-26T21:43:50.608Z,18.40
2023-03-26T21:46:16.656Z,18.41
2023-03-26T21:48:42.791Z,18.40
2023-03-26T21:51:10.321Z,18.40
2023-03-26T21:53:36.335Z,18.40
2023-03-26T21:56:12.574Z,18.40
2023-03-26T21:58:52.904Z,18.41
2023-03-26T22:01:27.508Z,18.41
2023-03-26T22:04:03.578Z,18.40
2023-03-26T22:06:36.427Z,18.40
2023-03-26T22:09:03.755Z,18.41
2023-03-26T22:11:29.862Z,18.41
2023-03-26T22:13:55.965Z,18.40
2023-03-26T22:16:24.547Z,18.40
2023-03-26T22:18:51.742Z,18.40
2023-03-26T22:21:17.802Z,18.40
2023-03-26T22:23:51.857Z,18.39
2023-03-26T22:26:19.478Z,18.40
2023-03-26T22:28:46.137Z,18.40
2023-03-26T22:31:12.080Z,18.40
2023-03-26T22:33:39.209Z,18.40
2023-03-26T22:36:22.712Z,18.40
2023-03-26T22:38:52.816Z,18.40
2023-03-26T22:41:18.502Z,18.41
2023-03-26T22:43:45.382Z,18.40
2023-03-26T22:46:11.810Z,18.41
2023-03-26T22:48:39.810Z,18.40
2023-03-26T22:51:07.631Z,18.39
2023-03-26T22:53:33.710Z,18.40
2023-03-26T22:55:59.847Z,18.39
2023-03-26T22:58:26.338Z,18.39
2023-03-26T23:01:00.841Z,18.40
2023-03-26T23:03:35.257Z,18.39
2023-03-26T23:06:03.898Z,18.39
2023-03-26T23:08:30.501Z,18.39
2023-03-26T23:10:56.393Z,18.39
2023-03-26T23:13:22.884Z,18.40
2023-03-26T23:15:49.782Z,18.39
2023-03-26T23:18:16.549Z,18.39
2023-03-26T23:20:51.839Z,18.39
2023-03-26T23:23:20.565Z,18.40
2023-03-26T23:25:46.850Z,18.39
2023-03-26T23:28:13.688Z,18.40
2023-03-26T23:30:39.329Z,18.39
2023-03-26T23:33:05.073Z,18.40
2023-03-26T23:35:30.799Z,18.40
2023-03-26T23:37:56.472Z,18.39
2023-03-26T23:40:22.148Z,18.38
2023-03-26T23:42:48.722Z,18.40
2023-03-26T23:45:15.673Z,18.40
2023-03-26T23:47:41.333Z,18.40
2023-03-26T23:50:08.912Z,18.40
2023-03-26T23:52:36.616Z,18.39
2023-03-26T23:55:02.620Z,18.41
2023-03-26T23:57:29.644Z,18.39
2023-03-26T23:59:55.405Z,18.39
